La Honda, California
Current Conditions -  °F | °C
As of 11:47 AM on Thursday 23 Oct 2014 (Local Time) from KPAO Reporting Station
Broken Clouds Broken Clouds  
Wind Chill: 70°   Ceiling: 10000
Heat Index: 70°   Visibility: 15mi
Dew Point: 61°   Wind: 7mph
Humidity: 73%   Direction: NA
Pressure: 30.07"   Gusts: NA
Location:  37.32°N, 122.27°W
Report Text: KPAO 231847Z VRB06KT 15SM FEW050 BKN100 21/16 A3007
Loading
Personal Weather Stations






























Interactive Weather Map
Tropical Storm Tracking
New forecast layout! Learn more

10-Day Weather Forecast

Advertisements
Track Severe Weather on mobile